Time;durP1;ratioP1;P1;durP2;ratioP2;P2;SDS_P1;SDS_P2;PMS_P1;PMS_P2;Temp;Humidity;BMP_temperature;BMP_pressure;BME280_temperature;BME280_humidity;BME280_pressure;Samples;Min_cycle;Max_cycle;Signal;HPM_P1;HPM_P2
2022/01/09 00:01:25;;;;;;;6.03;2.83;;;5.40;99.90;;;;;;4904689;29;20048;-74
2022/01/09 00:03:51;;;;;;;6.03;3.58;;;5.40;99.90;;;;;;4904785;29;20509;-74
2022/01/09 00:06:17;;;;;;;;;;;5.50;99.90;;;;;;4904989;29;20124;-74
2022/01/09 00:08:44;;;;;;;6.45;3.95;;;5.50;99.90;;;;;;4911138;29;19941;-74
2022/01/09 00:11:11;;;;;;;6.38;2.80;;;5.50;99.90;;;;;;4922905;29;20055;-73
2022/01/09 00:13:36;;;;;;;5.32;3.00;;;5.50;99.90;;;;;;4941467;29;20052;-73
2022/01/09 00:16:02;;;;;;;;;;;5.50;99.90;;;;;;4941596;29;20051;-74
2022/01/09 00:18:28;;;;;;;8.10;2.80;;;5.50;99.90;;;;;;4927157;29;19923;-73
2022/01/09 00:20:53;;;;;;;;;;;5.50;99.90;;;;;;4905366;29;20539;-74
2022/01/09 00:23:19;;;;;;;4.93;1.75;;;5.50;99.90;;;;;;4904611;29;19930;-73
2022/01/09 00:25:44;;;;;;;;;;;5.50;99.90;;;;;;4923073;29;20080;-73
2022/01/09 00:28:10;;;;;;;8.55;1.65;;;5.60;99.90;;;;;;4921466;29;19923;-74
2022/01/09 00:30:36;;;;;;;;;;;5.60;99.90;;;;;;4922230;29;20044;-74
2022/01/09 00:33:01;;;;;;;7.95;2.67;;;5.60;99.90;;;;;;4905445;29;19927;-72
2022/01/09 00:35:27;;;;;;;;;;;5.60;99.90;;;;;;4924371;29;20075;-73
2022/01/09 00:37:53;;;;;;;13.05;2.25;;;5.70;99.90;;;;;;4929047;29;20009;-73
2022/01/09 00:40:19;;;;;;;;;;;5.60;99.90;;;;;;4925678;29;20175;-73
2022/01/09 00:42:44;;;;;;;13.48;2.70;;;5.60;99.90;;;;;;4929596;29;19946;-73
2022/01/09 00:45:11;;;;;;;;;;;5.60;99.90;;;;;;4928337;29;20119;-73
2022/01/09 00:47:37;;;;;;;14.67;2.60;;;5.60;99.90;;;;;;4946588;29;19923;-72
2022/01/09 00:50:03;;;;;;;;;;;5.60;99.90;;;;;;4919223;29;20287;-72
2022/01/09 00:52:28;;;;;;;12.02;2.40;;;5.60;99.90;;;;;;4919764;29;20367;-74
2022/01/09 00:54:54;;;;;;;;;;;5.60;99.90;;;;;;4908389;29;20044;-73
2022/01/09 00:57:19;;;;;;;10.63;2.53;;;5.60;99.90;;;;;;4900888;29;19923;-73
2022/01/09 00:59:45;;;;;;;;;;;5.60;99.90;;;;;;4902101;29;20092;-73
2022/01/09 01:02:11;;;;;;;9.55;2.63;;;5.60;99.90;;;;;;4901371;29;19919;-73
2022/01/09 01:04:38;;;;;;;;;;;5.60;99.90;;;;;;4902151;29;20052;-74
2022/01/09 01:07:04;;;;;;;;;;;5.50;99.90;;;;;;4918432;29;19923;-74
2022/01/09 01:09:31;;;;;;;13.48;3.05;;;5.60;99.90;;;;;;4912707;29;20056;-74
2022/01/09 01:11:58;;;;;;;10.52;2.60;;;5.50;99.90;;;;;;4937597;29;20075;-74
2022/01/09 01:14:25;;;;;;;17.13;3.38;;;5.60;99.90;;;;;;4919870;29;20521;-74
2022/01/09 01:16:50;;;;;;;19.00;4.32;;;6.00;99.90;;;;;;4937384;29;20052;-74
2022/01/09 01:19:16;;;;;;;;;;;5.60;99.90;;;;;;4937632;29;20464;-74
2022/01/09 01:21:42;;;;;;;12.00;2.63;;;5.60;99.90;;;;;;4919571;29;19927;-74
2022/01/09 01:24:08;;;;;;;18.27;3.00;;;5.60;99.90;;;;;;4929258;29;20112;-74
2022/01/09 01:26:33;;;;;;;;;;;5.50;99.90;;;;;;4900956;29;20056;-74
2022/01/09 01:28:59;;;;;;;15.55;2.92;;;5.60;99.90;;;;;;4901098;29;19926;-74
2022/01/09 01:31:24;;;;;;;;;;;5.60;99.90;;;;;;4901314;29;21113;-74
2022/01/09 01:33:50;;;;;;;17.20;3.33;;;5.60;99.90;;;;;;4900630;29;19934;-74
2022/01/09 01:36:15;;;;;;;;;;;5.60;99.90;;;;;;4901451;29;20056;-75
2022/01/09 01:38:41;;;;;;;17.55;3.80;;;5.70;99.90;;;;;;4922797;29;20851;-74
2022/01/09 01:41:07;;;;;;;;;;;5.60;99.90;;;;;;4919470;29;20464;-75
2022/01/09 01:43:32;;;;;;;18.40;3.92;;;5.60;99.90;;;;;;4932310;29;20047;-75
2022/01/09 01:46:00;;;;;;;;;;;5.60;99.90;;;;;;4918354;29;20521;-74
2022/01/09 01:48:26;;;;;;;18.42;4.38;;;6.00;99.90;;;;;;4899998;29;19934;-74
2022/01/09 01:50:51;;;;;;;;;;;5.60;99.90;;;;;;4900497;29;20063;-74
2022/01/09 01:53:19;;;;;;;29.95;5.22;;;5.60;99.90;;;;;;4900850;29;20394;-74
2022/01/09 01:55:51;;;;;;;23.27;5.95;;;5.70;99.90;;;;;;4900221;29;20052;-75
2022/01/09 01:58:17;;;;;;;24.67;4.75;;;5.70;99.90;;;;;;4917424;29;20044;-74
2022/01/09 02:00:42;;;;;;;;;;;5.70;99.90;;;;;;4901061;29;20048;-74
2022/01/09 02:03:09;;;;;;;23.88;4.45;;;5.70;99.90;;;;;;4916737;29;19945;-74
2022/01/09 02:05:35;;;;;;;21.80;4.60;;;5.70;99.90;;;;;;4917593;29;20104;-74
2022/01/09 02:08:02;;;;;;;;;;;5.70;99.90;;;;;;4917775;29;20055;-74
2022/01/09 02:10:28;;;;;;;26.63;5.88;;;5.70;99.90;;;;;;4918191;29;19980;-74
2022/01/09 02:12:56;;;;;;;28.52;5.45;;;5.80;99.90;;;;;;4919499;29;20083;-74
2022/01/09 02:15:31;;;;;;;25.13;5.78;;;6.50;99.90;;;;;;4918949;29;20488;-74
2022/01/09 02:17:57;;;;;;;22.13;4.60;;;5.80;99.90;;;;;;4918676;29;20098;-74
2022/01/09 02:20:23;;;;;;;;;;;5.80;99.90;;;;;;4918833;29;20048;-74
2022/01/09 02:22:49;;;;;;;27.88;4.40;;;5.70;99.90;;;;;;4918206;29;19970;-74
2022/01/09 02:25:15;;;;;;;;;;;5.80;99.90;;;;;;4918835;29;20084;-74
2022/01/09 02:27:40;;;;;;;27.67;5.30;;;5.70;99.90;;;;;;4918263;29;19940;-74
2022/01/09 02:30:10;;;;;;;23.77;4.63;;;5.70;99.90;;;;;;4918159;29;20056;-74
2022/01/09 02:32:35;;;;;;;19.48;3.72;;;5.80;99.90;;;;;;4936044;29;20055;-74
2022/01/09 02:35:01;;;;;;;;;;;5.80;99.90;;;;;;4906222;29;20048;-74
2022/01/09 02:37:26;;;;;;;23.08;3.95;;;5.80;99.90;;;;;;4899026;29;20021;-74
2022/01/09 02:39:53;;;;;;;;;;;5.80;99.90;;;;;;4917555;29;20132;-74
2022/01/09 02:42:25;;;;;;;25.45;5.13;;;5.70;99.90;;;;;;4916830;29;19923;-75
2022/01/09 02:44:51;;;;;;;18.83;4.10;;;5.70;99.90;;;;;;4911651;29;20059;-74
2022/01/09 02:47:18;;;;;;;22.10;4.20;;;5.70;99.90;;;;;;4918452;29;20436;-74
2022/01/09 02:49:48;;;;;;;25.77;5.10;;;5.70;99.90;;;;;;4918587;29;20059;-74
2022/01/09 02:52:28;;;;;;;24.20;4.20;;;5.70;99.90;;;;;;4918247;29;20479;-74
2022/01/09 02:55:12;;;;;;;28.23;4.53;;;5.70;99.90;;;;;;4918990;29;20440;-74
2022/01/09 02:58:07;;;;;;;27.13;4.78;;;5.70;99.90;;;;;;4918522;29;20044;-74
2022/01/09 03:00:40;;;;;;;22.40;3.95;;;5.70;99.90;;;;;;4905782;29;20496;-75
2022/01/09 03:03:05;;;;;;;26.00;4.05;;;5.70;99.90;;;;;;4935508;29;20072;-75
2022/01/09 03:05:31;;;;;;;;;;;5.70;99.90;;;;;;4914786;29;20123;-74
2022/01/09 03:08:00;;;;;;;27.48;4.38;;;5.70;99.90;;;;;;4899564;29;19923;-74
2022/01/09 03:10:27;;;;;;;20.75;4.20;;;5.70;99.90;;;;;;4899093;29;20084;-75
2022/01/09 03:12:55;;;;;;;20.40;4.05;;;5.70;99.90;;;;;;4915665;29;20058;-74
2022/01/09 03:15:21;;;;;;;19.92;3.45;;;5.70;99.90;;;;;;4917414;29;20070;-74
2022/01/09 03:17:47;;;;;;;;;;;5.70;99.90;;;;;;4901085;29;20453;-75
2022/01/09 03:20:19;;;;;;;20.40;3.88;;;5.70;99.90;;;;;;4898617;29;20001;-75
2022/01/09 03:22:45;;;;;;;25.52;3.33;;;5.70;99.90;;;;;;4916288;29;20059;-75
2022/01/09 03:25:11;;;;;;;22.60;3.75;;;5.70;99.90;;;;;;4898563;29;20055;-75
2022/01/09 03:27:37;;;;;;;;;;;5.70;99.90;;;;;;4898973;29;20040;-75
2022/01/09 03:30:07;;;;;;;15.80;3.10;;;5.60;99.90;;;;;;4899398;29;19919;-75
2022/01/09 03:32:33;;;;;;;16.98;3.50;;;5.60;99.90;;;;;;4900645;29;20485;-75
2022/01/09 03:35:03;;;;;;;13.30;3.22;;;5.60;99.90;;;;;;4898898;29;20044;-75
2022/01/09 03:37:29;;;;;;;15.27;3.13;;;5.60;99.90;;;;;;4898763;29;20537;-75
2022/01/09 03:39:54;;;;;;;;;;;5.50;99.90;;;;;;4899605;29;20139;-74
2022/01/09 03:42:20;;;;;;;18.98;2.80;;;5.50;99.90;;;;;;4898301;29;19923;-74
2022/01/09 03:44:48;;;;;;;;;;;5.50;99.90;;;;;;4899606;29;20048;-74
2022/01/09 03:47:14;;;;;;;13.05;3.08;;;6.80;99.90;;;;;;4913416;29;19962;-75
2022/01/09 03:49:39;;;;;;;;;;;5.40;99.90;;;;;;4918756;29;20071;-75
2022/01/09 03:52:06;;;;;;;18.13;3.38;;;5.40;99.90;;;;;;4917963;29;19975;-75
2022/01/09 03:54:31;;;;;;;17.13;3.35;;;5.40;99.90;;;;;;4934356;29;20043;-75
2022/01/09 03:56:57;;;;;;;;;;;5.40;99.90;;;;;;4918494;29;20051;-74
2022/01/09 03:59:23;;;;;;;15.40;2.78;;;5.40;99.90;;;;;;4933950;29;20294;-75
2022/01/09 04:01:48;;;;;;;;;;;5.30;99.90;;;;;;4914409;29;20387;-75
2022/01/09 04:04:14;;;;;;;21.48;2.88;;;5.30;99.90;;;;;;4898366;29;19966;-75
2022/01/09 04:06:45;;;;;;;;;;;5.30;99.90;;;;;;4899585;29;20139;-75
2022/01/09 04:09:18;;;;;;;13.82;3.13;;;5.30;99.90;;;;;;4914842;29;19927;-74
2022/01/09 04:11:45;;;;;;;18.92;2.78;;;5.30;99.90;;;;;;4916025;29;20480;-75
2022/01/09 04:14:11;;;;;;;15.18;2.90;;;5.30;99.90;;;;;;4901469;29;20356;-74
2022/01/09 04:16:37;;;;;;;;;;;5.20;99.90;;;;;;4903849;29;20111;-74
2022/01/09 04:19:02;;;;;;;14.05;2.13;;;5.30;99.90;;;;;;4902611;29;20014;-74
2022/01/09 04:21:28;;;;;;;;;;;5.30;99.90;;;;;;4902355;29;20060;-74
2022/01/09 04:24:00;;;;;;;8.10;2.28;;;5.20;99.90;;;;;;4901999;29;19946;-74
2022/01/09 04:26:26;;;;;;;13.93;2.50;;;5.20;99.90;;;;;;4918921;29;20060;-75
2022/01/09 04:28:51;;;;;;;;;;;5.20;99.90;;;;;;4902987;29;20048;-75
2022/01/09 04:31:17;;;;;;;13.73;2.10;;;5.20;99.90;;;;;;4909172;29;20067;-75
2022/01/09 04:33:43;;;;;;;;;;;5.20;99.90;;;;;;4938457;29;20047;-74
2022/01/09 04:36:11;;;;;;;6.50;1.75;;;5.20;99.90;;;;;;4937465;29;20013;-75
2022/01/09 04:38:37;;;;;;;14.77;2.50;;;5.20;99.90;;;;;;4919867;29;20421;-74
2022/01/09 04:41:03;;;;;;;;;;;5.20;99.90;;;;;;4916978;29;20039;-74
2022/01/09 04:43:28;;;;;;;13.15;2.17;;;5.30;99.90;;;;;;4901668;29;20037;-74
2022/01/09 04:45:54;;;;;;;;;;;5.30;99.90;;;;;;4902223;29;20051;-74
2022/01/09 04:48:20;;;;;;;15.40;2.80;;;5.30;99.90;;;;;;4901659;29;20378;-74
2022/01/09 04:50:46;;;;;;;;;;;5.30;99.90;;;;;;4902098;29;20056;-74
2022/01/09 04:53:12;;;;;;;14.50;4.35;;;5.30;99.90;;;;;;4918690;29;19927;-74
2022/01/09 04:55:48;;;;;;;;;;;5.30;99.90;;;;;;4903610;29;20079;-74
2022/01/09 04:58:17;;;;;;;15.57;3.00;;;5.30;99.90;;;;;;4917916;29;19923;-74
2022/01/09 05:00:43;;;;;;;8.55;2.58;;;5.30;99.90;;;;;;4901948;29;20048;-74
2022/01/09 05:03:09;;;;;;;;;;;5.20;99.90;;;;;;4901924;29;20503;-74
2022/01/09 05:05:35;;;;;;;8.23;1.63;;;5.20;99.90;;;;;;4900954;29;19946;-74
2022/01/09 05:08:01;;;;;;;;;;;5.20;99.90;;;;;;4902282;29;20488;-74
2022/01/09 05:10:26;;;;;;;14.45;2.92;;;5.20;99.90;;;;;;4901381;29;20021;-74
2022/01/09 05:12:52;;;;;;;;;;;5.20;99.90;;;;;;4919924;29;20051;-74
2022/01/09 05:15:19;;;;;;;9.80;2.47;;;5.20;99.90;;;;;;4937242;29;20395;-75
2022/01/09 05:17:46;;;;;;;14.30;3.10;;;5.20;99.90;;;;;;4920113;29;20052;-75
2022/01/09 05:20:12;;;;;;;12.90;2.70;;;5.20;99.90;;;;;;4919342;29;20127;-75
2022/01/09 05:22:38;;;;;;;13.95;3.05;;;5.20;99.90;;;;;;4920414;29;20055;-75
2022/01/09 05:25:08;;;;;;;12.18;2.58;;;5.20;99.90;;;;;;4919713;29;20130;-75
2022/01/09 05:27:35;;;;;;;13.98;2.50;;;5.20;99.90;;;;;;4919306;29;20051;-75
2022/01/09 05:30:02;;;;;;;21.65;4.75;;;6.00;99.90;;;;;;4919933;29;20671;-74
2022/01/09 05:32:28;;;;;;;14.90;2.38;;;5.20;99.90;;;;;;4904120;29;20127;-75
2022/01/09 05:34:53;;;;;;;;;;;5.20;99.90;;;;;;4920257;29;20090;-75
2022/01/09 05:37:19;;;;;;;9.45;2.67;;;5.20;99.90;;;;;;4919405;29;19922;-75
2022/01/09 05:39:44;;;;;;;;;;;5.20;99.90;;;;;;4920058;29;20054;-74
2022/01/09 05:42:12;;;;;;;10.25;1.83;;;5.20;99.90;;;;;;4917972;29;20403;-75
2022/01/09 05:44:37;;;;;;;11.35;2.45;;;5.30;99.90;;;;;;4936955;29;20066;-75
2022/01/09 05:47:03;;;;;;;;;;;5.30;99.90;;;;;;4919248;29;20582;-75
2022/01/09 05:49:29;;;;;;;9.15;2.00;;;5.30;99.90;;;;;;4919421;29;19929;-75
2022/01/09 05:51:54;;;;;;;;;;;5.30;99.90;;;;;;4920321;29;20051;-75
2022/01/09 05:54:20;;;;;;;14.27;2.50;;;5.30;99.90;;;;;;4919152;29;19923;-75
2022/01/09 05:56:45;;;;;;;;;;;5.30;99.90;;;;;;4916919;29;20508;-75
2022/01/09 05:59:11;;;;;;;9.88;3.38;;;5.30;99.90;;;;;;4900614;29;20012;-75
2022/01/09 06:01:37;;;;;;;;;;;5.30;99.90;;;;;;4900643;29;20158;-75
2022/01/09 06:04:03;;;;;;;13.43;2.60;;;5.30;99.90;;;;;;4901071;29;19934;-75
2022/01/09 06:06:29;;;;;;;14.52;2.45;;;5.30;99.90;;;;;;4900141;29;20088;-75
2022/01/09 06:08:54;;;;;;;;;;;5.30;99.90;;;;;;4917880;29;20040;-75
2022/01/09 06:11:20;;;;;;;17.75;2.33;;;5.30;99.90;;;;;;4904155;29;20323;-75
2022/01/09 06:13:46;;;;;;;;;;;5.30;99.90;;;;;;4919732;29;20044;-74
2022/01/09 06:16:14;;;;;;;9.40;2.92;;;5.30;99.90;;;;;;4919884;29;19923;-74
2022/01/09 06:18:40;;;;;;;10.43;1.80;;;5.30;99.90;;;;;;4900609;29;20138;-75
2022/01/09 06:21:05;;;;;;;;;;;5.20;99.90;;;;;;4900254;29;20056;-75
2022/01/09 06:23:31;;;;;;;13.30;2.67;;;5.20;99.90;;;;;;4916836;29;19923;-75
2022/01/09 06:25:56;;;;;;;;;;;5.80;99.90;;;;;;4900506;29;20084;-75
2022/01/09 06:28:22;;;;;;;7.47;2.00;;;5.20;99.90;;;;;;4918031;29;19950;-75
2022/01/09 06:30:48;;;;;;;;;;;5.20;99.90;;;;;;4917066;29;20191;-74
2022/01/09 06:33:14;;;;;;;7.15;2.08;;;5.20;99.90;;;;;;4899790;29;19923;-75
2022/01/09 06:35:39;;;;;;;;;;;5.10;99.90;;;;;;4900084;29;20055;-74
2022/01/09 06:38:06;;;;;;;9.70;1.75;;;5.10;99.90;;;;;;4899421;29;19975;-75
2022/01/09 06:40:32;;;;;;;13.23;1.50;;;5.10;99.90;;;;;;4900456;29;20443;-75
2022/01/09 06:43:01;;;;;;;;;;;5.20;99.90;;;;;;4901153;29;20411;-75
2022/01/09 06:45:27;;;;;;;7.18;1.42;;;5.20;99.90;;;;;;4899730;29;19927;-75
2022/01/09 06:47:57;;;;;;;;;;;5.30;99.90;;;;;;4900085;29;20050;-75
2022/01/09 06:50:23;;;;;;;8.45;1.42;;;5.70;99.90;;;;;;4916135;29;19955;-75
2022/01/09 06:52:49;;;;;;;8.05;1.70;;;5.20;99.90;;;;;;4899645;29;20050;-75
2022/01/09 06:55:15;;;;;;;;;;;5.20;99.90;;;;;;4916916;29;20048;-75
2022/01/09 06:57:56;;;;;;;8.10;1.55;;;5.10;99.90;;;;;;4914309;29;19930;-75
2022/01/09 07:00:22;;;;;;;;;;;5.00;99.90;;;;;;4917758;29;20039;-75
2022/01/09 07:02:47;;;;;;;5.82;1.42;;;5.00;99.90;;;;;;4935831;29;19922;-75
2022/01/09 07:05:13;;;;;;;;;;;4.90;99.90;;;;;;4918156;29;20047;-75
2022/01/09 07:07:39;;;;;;;7.25;1.52;;;4.90;99.90;;;;;;4918538;29;19970;-75
2022/01/09 07:10:06;;;;;;;13.57;2.70;;;4.90;99.90;;;;;;4935385;29;20119;-75
2022/01/09 07:12:32;;;;;;;11.02;1.77;;;4.90;99.90;;;;;;4917813;29;20043;-75
2022/01/09 07:14:57;;;;;;;;;;;5.00;99.90;;;;;;4918581;29;20134;-75
2022/01/09 07:17:23;;;;;;;8.82;1.80;;;5.00;99.90;;;;;;4934979;29;19950;-75
2022/01/09 07:19:48;;;;;;;;;;;5.00;99.90;;;;;;4918025;29;20075;-75
2022/01/09 07:22:14;;;;;;;7.75;1.55;;;5.00;99.90;;;;;;4917761;29;19971;-75
2022/01/09 07:24:40;;;;;;;;;;;5.10;99.90;;;;;;4918425;29;20052;-74
2022/01/09 07:27:05;;;;;;;8.25;1.77;;;5.10;99.90;;;;;;4934640;29;19949;-74
2022/01/09 07:29:31;;;;;;;;;;;5.10;99.90;;;;;;4907156;29;20131;-74
2022/01/09 07:31:57;;;;;;;10.88;2.58;;;5.10;99.90;;;;;;4899412;29;19923;-74
2022/01/09 07:34:22;;;;;;;;;;;5.10;99.90;;;;;;4915749;29;20519;-74
2022/01/09 07:36:50;;;;;;;18.00;3.63;;;5.10;99.90;;;;;;4916092;29;19926;-74
2022/01/09 07:39:16;;;;;;;7.63;1.50;;;5.10;99.90;;;;;;4898595;29;20048;-74
2022/01/09 07:41:42;;;;;;;;;;;5.20;99.90;;;;;;4899596;29;20518;-75
2022/01/09 07:44:08;;;;;;;9.82;1.90;;;5.10;99.90;;;;;;4927197;29;19986;-74
2022/01/09 07:46:34;;;;;;;;;;;5.20;99.90;;;;;;4918463;29;20044;-74
2022/01/09 07:49:00;;;;;;;10.02;2.33;;;5.20;99.90;;;;;;4921971;29;20359;-74
2022/01/09 07:51:25;;;;;;;;;;;5.20;99.90;;;;;;4921649;29;20091;-74
2022/01/09 07:53:51;;;;;;;11.40;2.30;;;5.20;99.90;;;;;;4919708;29;20324;-74
2022/01/09 07:56:16;;;;;;;;;;;5.20;99.90;;;;;;4937533;29;20048;-75
2022/01/09 07:58:42;;;;;;;13.65;1.98;;;5.20;99.90;;;;;;4921468;29;19978;-74
2022/01/09 08:01:07;;;;;;;;;;;5.30;99.90;;;;;;4921431;29;20134;-75
2022/01/09 08:03:34;;;;;;;10.60;3.22;;;5.30;99.90;;;;;;4938495;29;19922;-75
2022/01/09 08:06:00;;;;;;;16.50;2.50;;;5.30;99.90;;;;;;4921321;29;20506;-75
2022/01/09 08:08:25;;;;;;;;;;;5.30;99.90;;;;;;4915827;29;20044;-75
2022/01/09 08:10:52;;;;;;;7.05;1.33;;;5.30;99.90;;;;;;4913794;29;19997;-75
2022/01/09 08:13:18;;;;;;;9.82;1.70;;;5.30;99.90;;;;;;4920254;29;20049;-75
2022/01/09 08:15:43;;;;;;;;;;;5.30;99.90;;;;;;4920473;29;20424;-74
2022/01/09 08:18:09;;;;;;;4.28;1.02;;;5.30;99.90;;;;;;4932610;29;20006;-74
2022/01/09 08:20:34;;;;;;;;;;;5.50;99.90;;;;;;4937821;29;20504;-73
2022/01/09 08:23:00;;;;;;;7.15;1.05;;;5.20;99.90;;;;;;4919818;29;19958;-74
2022/01/09 08:25:26;;;;;;;;;;;5.20;99.90;;;;;;4902514;29;20111;-73
2022/01/09 08:27:51;;;;;;;7.40;1.42;;;5.20;99.90;;;;;;4902065;29;19927;-74
2022/01/09 08:30:18;;;;;;;;;;;5.20;99.90;;;;;;4901488;29;20055;-74
2022/01/09 08:32:44;;;;;;;10.65;1.70;;;5.10;99.90;;;;;;4919441;29;19923;-74
2022/01/09 08:35:10;;;;;;;;;;;5.20;99.90;;;;;;4902475;29;20040;-74
2022/01/09 08:37:36;;;;;;;7.88;1.80;;;5.20;99.90;;;;;;4901419;29;20275;-74
2022/01/09 08:40:02;;;;;;;;;;;5.10;99.90;;;;;;4921348;29;20059;-74
2022/01/09 08:42:28;;;;;;;8.45;2.20;;;5.10;99.90;;;;;;4937456;29;19929;-74
2022/01/09 08:44:54;;;;;;;;;;;5.10;99.90;;;;;;4922859;29;20047;-73
2022/01/09 08:47:19;;;;;;;17.33;4.57;;;5.10;99.90;;;;;;4920047;29;20394;-73
2022/01/09 08:49:45;;;;;;;;;;;5.00;99.90;;;;;;4920535;29;20051;-73
2022/01/09 08:52:13;;;;;;;12.45;2.58;;;5.10;99.90;;;;;;4934047;29;19949;-72
2022/01/09 08:54:39;;;;;;;;;;;5.10;99.90;;;;;;4920758;29;20091;-73
2022/01/09 08:57:05;;;;;;;7.80;2.40;;;5.10;99.90;;;;;;4919836;29;19923;-74
2022/01/09 08:59:30;;;;;;;;;;;5.10;99.90;;;;;;4937531;29;20127;-74
2022/01/09 09:01:56;;;;;;;8.60;2.92;;;5.20;99.90;;;;;;4920409;29;20348;-74
2022/01/09 09:04:22;;;;;;;;;;;5.20;99.90;;;;;;4909751;29;20047;-74
2022/01/09 09:06:47;;;;;;;8.07;2.30;;;5.30;99.90;;;;;;4901163;29;19946;-73
2022/01/09 09:09:13;;;;;;;;;;;5.30;99.90;;;;;;4918090;29;20067;-74
2022/01/09 09:11:39;;;;;;;35.75;15.32;;;5.40;99.90;;;;;;4915297;29;19934;-74
2022/01/09 09:14:04;;;;;;;;;;;5.40;99.90;;;;;;4920821;29;20080;-74
2022/01/09 09:16:31;;;;;;;13.30;4.22;;;5.40;99.90;;;;;;4919637;29;20440;-75
2022/01/09 09:18:57;;;;;;;9.70;2.88;;;5.40;99.90;;;;;;4934750;29;20048;-74
2022/01/09 09:21:22;;;;;;;;;;;5.40;99.90;;;;;;4925397;29;20055;-73
2022/01/09 09:23:48;;;;;;;10.63;2.97;;;5.40;99.90;;;;;;4931421;29;19923;-75
2022/01/09 09:26:15;;;;;;;;;;;5.40;99.90;;;;;;4916529;29;20039;-73
2022/01/09 09:28:41;;;;;;;8.55;2.40;;;5.40;99.90;;;;;;4920098;29;19929;-73
2022/01/09 09:31:06;;;;;;;;;;;5.40;99.90;;;;;;4922838;29;20044;-73
2022/01/09 09:33:32;;;;;;;7.88;2.60;;;5.50;99.90;;;;;;4919212;29;19923;-71
2022/01/09 09:35:59;;;;;;;;;;;5.50;99.90;;;;;;4920134;29;20055;-73
2022/01/09 09:38:25;;;;;;;9.10;2.05;;;5.50;99.90;;;;;;4919631;29;20387;-72
2022/01/09 09:40:51;;;;;;;;;;;5.50;99.90;;;;;;4918968;29;20098;-74
2022/01/09 09:43:17;;;;;;;8.57;1.95;;;5.60;99.90;;;;;;4952241;23;20297;-81
2022/01/09 09:45:43;;;;;;;;;;;5.60;99.90;;;;;;4955219;28;20046;-83
2022/01/09 09:48:08;;;;;;;6.38;1.48;;;5.60;99.90;;;;;;4955765;28;19994;-75
2022/01/09 09:50:34;;;;;;;;;;;5.60;99.90;;;;;;4939209;29;20047;-74
2022/01/09 09:53:01;;;;;;;3.78;1.52;;;5.70;99.90;;;;;;4938083;29;19957;-73
2022/01/09 09:55:27;;;;;;;7.70;1.70;;;5.70;99.90;;;;;;4941870;28;20556;-72
2022/01/09 09:57:53;;;;;;;;;;;5.70;99.90;;;;;;4954327;28;20672;-80
2022/01/09 10:00:21;;;;;;;10.82;2.72;;;5.70;99.90;;;;;;4939979;29;19929;-75
2022/01/09 10:02:55;;;;;;;11.32;2.17;;;5.70;99.90;;;;;;4935258;29;20126;-73
2022/01/09 10:05:26;;;;;;;8.63;2.50;;;6.00;99.90;;;;;;4937032;29;20499;-73
2022/01/09 10:07:53;;;;;;;8.65;2.55;;;6.20;99.90;;;;;;4938102;29;20518;-75
2022/01/09 10:10:21;;;;;;;11.55;2.33;;;6.30;99.90;;;;;;4947928;28;20061;-73
2022/01/09 10:12:48;;;;;;;11.45;2.80;;;6.40;99.90;;;;;;4972761;28;20070;-73
2022/01/09 10:15:19;;;;;;;8.82;2.60;;;6.60;99.90;;;;;;4973915;28;20053;-75
2022/01/09 10:17:47;;;;;;;7.60;2.22;;;6.70;99.90;;;;;;4952953;28;20051;-75
2022/01/09 10:20:17;;;;;;;9.10;3.28;;;7.20;99.90;;;;;;4948760;28;20051;-75
2022/01/09 10:22:54;;;;;;;8.38;2.55;;;7.70;99.90;;;;;;4950423;28;20039;-75
2022/01/09 10:25:19;;;;;;;9.50;2.00;;;8.10;99.90;;;;;;4950406;28;20051;-74
2022/01/09 10:27:46;;;;;;;;;;;8.70;99.90;;;;;;4953845;29;20047;-72
2022/01/09 10:30:12;;;;;;;8.57;1.92;;;9.10;99.90;;;;;;4936321;29;20009;-76
2022/01/09 10:32:38;;;;;;;7.90;2.20;;;9.50;99.90;;;;;;5268947;23;20119;-72
2022/01/09 10:35:08;;;;;;;;;;;9.90;99.90;;;;;;4898322;29;20052;-73
2022/01/09 10:37:35;;;;;;;9.13;2.55;;;10.60;99.90;;;;;;4900034;29;19927;-73
2022/01/09 10:40:02;;;;;;;10.30;3.15;;;11.30;99.90;;;;;;4899643;29;20449;-74
2022/01/09 10:42:28;;;;;;;8.95;2.75;;;11.80;99.90;;;;;;4887702;29;20076;-76
2022/01/09 10:44:54;;;;;;;;;;;13.30;99.90;;;;;;4897060;29;20075;-79
2022/01/09 10:47:20;;;;;;;8.85;3.33;;;13.00;99.90;;;;;;4886826;29;20447;-77
2022/01/09 10:49:47;;;;;;;8.85;3.38;;;13.40;99.90;;;;;;4890345;29;20050;-74
2022/01/09 10:52:41;;;;;;;8.60;3.70;;;13.90;99.90;;;;;;4892923;29;20048;-74
2022/01/09 10:55:09;;;;;;;6.70;2.50;;;13.30;99.90;;;;;;4882587;29;20556;-73
2022/01/09 10:57:37;;;;;;;4.75;2.10;;;12.60;99.90;;;;;;4908101;29;20055;-73
2022/01/09 11:00:07;;;;;;;8.45;1.80;;;12.30;99.90;;;;;;4891486;29;20040;-77
2022/01/09 11:02:33;;;;;;;5.95;1.83;;;13.00;99.90;;;;;;4884385;29;20052;-75
2022/01/09 11:04:59;;;;;;;7.25;2.20;;;13.80;99.90;;;;;;4905184;29;20923;-77
2022/01/09 11:07:25;;;;;;;8.43;1.90;;;14.40;99.90;;;;;;4911542;29;20047;-77
2022/01/09 11:09:52;;;;;;;7.15;2.55;;;14.40;99.90;;;;;;4889529;29;20048;-76
2022/01/09 11:12:20;;;;;;;7.88;2.45;;;16.30;99.90;;;;;;4892567;29;20076;-75
2022/01/09 11:14:48;;;;;;;9.52;2.90;;;14.50;99.90;;;;;;4892183;29;20080;-76
2022/01/09 11:17:16;;;;;;;7.70;3.20;;;13.30;99.90;;;;;;4885514;29;20044;-76
2022/01/09 11:19:42;;;;;;;8.18;3.03;;;12.30;99.90;;;;;;4897868;29;20190;-76
2022/01/09 11:22:10;;;;;;;7.45;2.70;;;12.60;99.90;;;;;;4886771;29;20163;-75
2022/01/09 11:24:54;;;;;;;10.68;3.00;;;13.30;99.90;;;;;;4884821;29;20056;-76
2022/01/09 11:27:23;;;;;;;6.80;2.30;;;13.50;99.90;;;;;;4894174;29;20054;-78
2022/01/09 11:30:04;;;;;;;6.00;1.77;;;13.30;99.90;;;;;;4905903;29;20044;-78
2022/01/09 11:33:08;;;;;;;6.35;1.85;;;12.80;99.90;;;;;;4889742;29;20127;-79
2022/01/09 11:36:00;;;;;;;7.25;2.20;;;11.50;99.90;;;;;;4903921;29;20051;-75
2022/01/09 11:39:13;;;;;;;7.03;2.10;;;11.30;99.90;;;;;;4882827;29;20139;-78
2022/01/09 11:41:43;;;;;;;6.15;2.17;;;12.30;99.90;;;;;;4889982;29;20504;-78
2022/01/09 11:44:12;;;;;;;7.07;3.17;;;13.40;99.90;;;;;;4883267;29;20056;-75
2022/01/09 11:47:00;;;;;;;8.50;2.65;;;13.50;99.90;;;;;;4899098;29;20507;-79
2022/01/09 11:49:28;;;;;;;16.52;5.95;;;13.70;99.90;;;;;;4888229;29;20048;-79
2022/01/09 11:51:59;;;;;;;12.93;5.55;;;14.00;99.90;;;;;;4895654;29;20048;-75
2022/01/09 11:54:26;;;;;;;7.55;2.50;;;13.50;99.90;;;;;;4904593;29;20040;-74
2022/01/09 11:56:55;;;;;;;8.68;2.42;;;12.00;99.90;;;;;;4889311;29;20051;-80
2022/01/09 11:59:37;;;;;;;5.97;2.00;;;10.90;99.90;;;;;;4908012;29;20389;-76
2022/01/09 12:02:29;;;;;;;7.18;1.90;;;9.90;99.90;;;;;;4904305;29;20048;-79
2022/01/09 12:04:58;;;;;;;10.65;2.30;;;9.00;99.90;;;;;;4885554;29;20060;-76
2022/01/09 12:07:32;;;;;;;10.75;3.97;;;8.40;99.90;;;;;;4879781;29;20080;-75
2022/01/09 12:10:00;;;;;;;7.57;2.92;;;8.10;99.90;;;;;;4886691;29;20518;-75
2022/01/09 12:12:32;;;;;;;5.13;1.90;;;7.80;99.90;;;;;;4914249;29;20044;-75
2022/01/09 12:15:03;;;;;;;7.28;2.50;;;7.70;99.90;;;;;;4912460;29;20055;-75
2022/01/09 12:17:44;;;;;;;9.93;3.47;;;7.50;99.90;;;;;;4897948;29;20096;-75
2022/01/09 12:20:13;;;;;;;10.60;2.20;;;7.50;99.90;;;;;;4898785;29;20058;-75
2022/01/09 12:22:51;;;;;;;6.43;1.85;;;8.00;99.90;;;;;;4912028;29;20097;-76
2022/01/09 12:25:25;;;;;;;9.63;2.00;;;8.80;99.90;;;;;;4898939;29;20053;-75
2022/01/09 12:28:08;;;;;;;4.13;1.83;;;8.70;99.90;;;;;;4897850;29;20100;-74
2022/01/09 12:30:40;;;;;;;6.88;2.13;;;8.10;99.90;;;;;;4889417;29;20401;-78
2022/01/09 12:33:06;;;;;;;9.27;2.10;;;8.00;99.90;;;;;;4891150;29;20066;-77
2022/01/09 12:35:33;;;;;;;;;;;7.40;99.90;;;;;;4896676;29;20049;-75
2022/01/09 12:38:00;;;;;;;9.20;2.40;;;7.20;99.90;;;;;;4909986;29;20063;-78
2022/01/09 12:40:27;;;;;;;6.22;2.05;;;7.80;99.90;;;;;;4936701;29;20093;-77
2022/01/09 12:42:59;;;;;;;3.65;1.40;;;6.90;99.90;;;;;;4880736;29;20052;-77
2022/01/09 12:45:31;;;;;;;6.47;2.05;;;8.20;99.90;;;;;;4881094;29;20057;-76
2022/01/09 12:47:57;;;;;;;6.97;2.05;;;6.60;99.90;;;;;;4912067;29;20130;-77
2022/01/09 12:50:36;;;;;;;8.00;2.72;;;6.40;99.90;;;;;;4900388;29;20044;-79
2022/01/09 12:53:17;;;;;;;6.45;2.35;;;6.40;99.90;;;;;;4934335;29;20083;-77
2022/01/09 12:56:32;;;;;;;6.07;2.53;;;6.10;99.90;;;;;;4920475;29;20138;-77
2022/01/09 12:59:07;;;;;;;8.82;2.10;;;6.10;99.90;;;;;;4913408;29;20055;-77
2022/01/09 13:01:48;;;;;;;4.60;1.77;;;6.00;99.90;;;;;;4920956;29;20047;-76
2022/01/09 13:04:19;;;;;;;6.43;1.95;;;5.90;99.90;;;;;;4902298;29;20056;-79
2022/01/09 13:06:49;;;;;;;8.98;2.72;;;5.80;99.90;;;;;;4882804;29;20489;-78
2022/01/09 13:09:16;;;;;;;8.15;3.03;;;5.80;99.90;;;;;;4882632;29;20070;-80
2022/01/09 13:11:51;;;;;;;5.78;1.70;;;5.80;99.90;;;;;;4885939;29;20132;-79
2022/01/09 13:14:16;;;;;;;8.00;1.88;;;5.80;99.90;;;;;;4882473;29;20510;-75
2022/01/09 13:16:42;;;;;;;;;;;5.80;99.90;;;;;;4893439;29;20052;-76
2022/01/09 13:19:12;;;;;;;5.72;1.98;;;6.30;99.90;;;;;;5097983;23;20318;-75
2022/01/09 13:21:44;;;;;;;4.43;1.65;;;6.80;99.90;;;;;;4940156;29;20087;-75